createdAt,value
2022-09-03T00:00:19.672Z,24.70
2022-09-03T00:03:06.704Z,24.95
2022-09-03T00:05:55.211Z,25.05
2022-09-03T00:08:40.825Z,24.75
2022-09-03T00:11:26.045Z,24.93
2022-09-03T00:14:13.226Z,24.95
2022-09-03T00:17:07.119Z,24.93
2022-09-03T00:19:41.531Z,25.04
2022-09-03T00:22:24.859Z,25.04
2022-09-03T00:24:52.819Z,24.74
2022-09-03T00:27:27.160Z,24.94
2022-09-03T00:30:05.607Z,24.86
2022-09-03T00:32:57.861Z,24.85
2022-09-03T00:35:44.962Z,25.03
2022-09-03T00:38:11.990Z,24.64
2022-09-03T00:41:03.663Z,25.14
2022-09-03T00:44:03.265Z,24.61
2022-09-03T00:47:04.941Z,24.66
2022-09-03T00:50:22.517Z,24.85
2022-09-03T00:53:17.520Z,24.69
2022-09-03T00:56:00.576Z,24.60
2022-09-03T00:58:39.442Z,24.65
2022-09-03T01:01:24.094Z,24.47
2022-09-03T01:03:56.216Z,24.57
2022-09-03T01:07:08.415Z,24.35
2022-09-03T01:09:50.420Z,24.32
2022-09-03T01:12:41.193Z,24.27
2022-09-03T01:15:42.340Z,24.29
2022-09-03T01:18:37.998Z,24.05
2022-09-03T01:21:07.576Z,24.16
2022-09-03T01:24:02.791Z,24.24
2022-09-03T01:27:12.023Z,24.49
2022-09-03T01:30:00.276Z,24.53
2022-09-03T01:32:57.735Z,24.31
2022-09-03T01:35:34.956Z,24.16
2022-09-03T01:38:35.264Z,24.34
2022-09-03T01:41:39.214Z,24.77
2022-09-03T01:44:58.290Z,24.64
2022-09-03T01:47:59.079Z,24.83
2022-09-03T01:51:00.176Z,24.46
2022-09-03T01:54:21.171Z,24.65
2022-09-03T01:57:36.814Z,24.53
2022-09-03T02:00:20.560Z,24.68
2022-09-03T02:02:53.085Z,24.32
2022-09-03T02:05:26.971Z,24.69
2022-09-03T02:08:03.199Z,24.47
2022-09-03T02:10:45.648Z,24.31
2022-09-03T02:13:16.672Z,24.13
2022-09-03T02:15:50.544Z,24.27
2022-09-03T02:18:25.464Z,23.98
2022-09-03T02:20:54.309Z,24.41
2022-09-03T02:23:24.739Z,24.53
2022-09-03T02:26:03.746Z,24.58
2022-09-03T02:28:32.699Z,24.73
2022-09-03T02:31:00.029Z,24.49
2022-09-03T02:33:27.590Z,24.45
2022-09-03T02:35:55.263Z,24.37
2022-09-03T02:38:28.384Z,24.70
2022-09-03T02:40:55.903Z,24.44
2022-09-03T02:43:32.886Z,24.50
2022-09-03T02:46:04.158Z,24.59
2022-09-03T02:48:31.259Z,24.29
2022-09-03T02:50:58.791Z,24.31
2022-09-03T02:53:28.343Z,24.22
2022-09-03T02:56:00.405Z,24.36
2022-09-03T02:58:28.918Z,24.28
2022-09-03T03:00:56.064Z,23.89
2022-09-03T03:03:23.439Z,24.24
2022-09-03T03:05:55.574Z,24.08
2022-09-03T03:08:28.629Z,24.41
2022-09-03T03:11:01.543Z,24.26
2022-09-03T03:13:30.748Z,24.24
2022-09-03T03:16:06.315Z,24.45
2022-09-03T03:18:34.709Z,24.06
2022-09-03T03:21:11.516Z,24.33
2022-09-03T03:23:39.614Z,24.02
2022-09-03T03:26:10.844Z,24.22
2022-09-03T03:28:38.141Z,24.13
2022-09-03T03:31:14.596Z,24.43
2022-09-03T03:33:41.947Z,23.94
2022-09-03T03:36:17.929Z,24.03
2022-09-03T03:38:45.601Z,23.89
2022-09-03T03:41:17.647Z,23.79
2022-09-03T03:43:45.649Z,23.85
2022-09-03T03:46:15.212Z,23.52
2022-09-03T03:48:42.332Z,23.81
2022-09-03T03:51:10.662Z,23.74
2022-09-03T03:53:38.922Z,23.94
2022-09-03T03:56:10.805Z,24.07
2022-09-03T03:58:42.435Z,23.97
2022-09-03T04:01:14.089Z,24.10
2022-09-03T04:03:42.308Z,24.02
2022-09-03T04:06:11.415Z,24.16
2022-09-03T04:08:41.608Z,23.95
2022-09-03T04:11:12.031Z,23.57
2022-09-03T04:13:42.498Z,23.75
2022-09-03T04:16:28.971Z,23.92
2022-09-03T04:18:56.969Z,23.70
2022-09-03T04:21:28.503Z,23.83
2022-09-03T04:23:56.681Z,24.01
2022-09-03T04:26:31.426Z,23.82
2022-09-03T04:29:07.527Z,23.85
2022-09-03T04:31:36.584Z,23.74
2022-09-03T04:34:06.565Z,23.63
2022-09-03T04:36:35.043Z,23.94
2022-09-03T04:39:02.615Z,23.78
2022-09-03T04:41:31.441Z,23.83
2022-09-03T04:43:59.468Z,23.72
2022-09-03T04:46:33.310Z,23.78
2022-09-03T04:49:01.892Z,23.80
2022-09-03T04:51:30.174Z,23.61
2022-09-03T04:54:02.300Z,23.83
2022-09-03T04:56:33.336Z,23.77
2022-09-03T04:59:04.307Z,23.63
2022-09-03T05:01:34.340Z,23.79
2022-09-03T05:04:02.583Z,23.79
2022-09-03T05:06:31.619Z,23.66
2022-09-03T05:08:59.048Z,23.31
2022-09-03T05:11:28.173Z,23.51
2022-09-03T05:13:59.353Z,23.59
2022-09-03T05:16:29.036Z,23.57
2022-09-03T05:18:59.850Z,23.51
2022-09-03T05:21:27.653Z,23.48
2022-09-03T05:23:55.059Z,23.63
2022-09-03T05:26:37.134Z,23.79
2022-09-03T05:29:09.384Z,23.45
2022-09-03T05:31:39.328Z,23.49
2022-09-03T05:34:07.054Z,23.26
2022-09-03T05:36:37.544Z,23.49
2022-09-03T05:39:06.146Z,23.41
2022-09-03T05:41:34.022Z,23.45
2022-09-03T05:44:01.302Z,23.63
2022-09-03T05:46:34.005Z,23.60
2022-09-03T05:49:04.371Z,23.55
2022-09-03T05:51:32.735Z,23.67
2022-09-03T05:54:00.122Z,23.77
2022-09-03T05:56:30.757Z,23.94
2022-09-03T05:59:04.745Z,23.79
2022-09-03T06:01:41.590Z,23.73
2022-09-03T06:04:18.933Z,23.76
2022-09-03T06:06:47.918Z,23.81
2022-09-03T06:09:20.888Z,23.88
2022-09-03T06:11:50.412Z,23.62
2022-09-03T06:14:20.557Z,23.63
2022-09-03T06:16:52.587Z,24.23
2022-09-03T06:19:19.668Z,24.10
2022-09-03T06:21:47.764Z,24.17
2022-09-03T06:24:26.339Z,23.75
2022-09-03T06:26:56.557Z,23.71
2022-09-03T06:29:23.764Z,23.67
2022-09-03T06:31:51.507Z,23.88
2022-09-03T06:34:18.885Z,23.94
2022-09-03T06:36:46.426Z,23.92
2022-09-03T06:39:13.544Z,23.93
2022-09-03T06:41:40.519Z,23.83
2022-09-03T06:44:12.043Z,23.84
2022-09-03T06:46:42.638Z,24.09
2022-09-03T06:49:11.514Z,24.18
2022-09-03T06:51:39.442Z,23.94
2022-09-03T06:54:12.441Z,23.77
2022-09-03T06:56:41.424Z,23.60
2022-09-03T06:59:12.647Z,23.76
2022-09-03T07:01:43.965Z,23.75
2022-09-03T07:04:16.133Z,23.96
2022-09-03T07:06:44.243Z,23.81
2022-09-03T07:09:12.759Z,23.97
2022-09-03T07:11:46.934Z,23.80
2022-09-03T07:14:19.271Z,23.82
2022-09-03T07:16:48.837Z,23.96
2022-09-03T07:19:17.290Z,24.00
2022-09-03T07:21:49.633Z,23.84
2022-09-03T07:24:19.964Z,23.83
2022-09-03T07:26:49.216Z,23.82
2022-09-03T07:29:20.052Z,23.95
2022-09-03T07:31:48.830Z,23.85
2022-09-03T07:34:16.545Z,23.77
2022-09-03T07:36:48.967Z,24.03
2022-09-03T07:39:18.079Z,23.86
2022-09-03T07:41:46.721Z,23.94
2022-09-03T07:44:16.344Z,23.99
2022-09-03T07:46:46.114Z,23.96
2022-09-03T07:49:13.662Z,24.03
2022-09-03T07:51:40.995Z,24.08
2022-09-03T07:54:11.110Z,24.33
2022-09-03T07:56:40.576Z,24.64
2022-09-03T07:59:08.807Z,24.72
2022-09-03T08:01:38.469Z,24.54
2022-09-03T08:04:09.576Z,24.60
2022-09-03T08:06:38.299Z,24.83
2022-09-03T08:09:09.248Z,24.48
2022-09-03T08:11:39.355Z,24.37
2022-09-03T08:14:10.073Z,24.57
2022-09-03T08:16:41.967Z,24.80
2022-09-03T08:19:11.365Z,24.18
2022-09-03T08:21:38.773Z,24.01
2022-09-03T08:24:06.483Z,24.07
2022-09-03T08:26:40.748Z,23.67
2022-09-03T08:29:08.493Z,23.54
2022-09-03T08:31:36.665Z,23.84
2022-09-03T08:34:07.302Z,24.08
2022-09-03T08:36:38.413Z,23.95
2022-09-03T08:39:10.895Z,24.31
2022-09-03T08:41:53.406Z,24.26
2022-09-03T08:44:34.107Z,24.77
2022-09-03T08:47:46.942Z,25.16
2022-09-03T08:50:44.109Z,24.82
2022-09-03T08:53:39.953Z,24.37
2022-09-03T08:56:25.794Z,24.35
2022-09-03T08:58:52.894Z,24.69
2022-09-03T09:01:48.334Z,25.08
2022-09-03T09:04:39.995Z,24.98
2022-09-03T09:07:11.628Z,24.77
2022-09-03T09:09:49.058Z,25.03
2022-09-03T09:12:30.219Z,25.20
2022-09-03T09:15:21.391Z,25.24
2022-09-03T09:18:12.401Z,25.63
2022-09-03T09:21:09.707Z,25.96
2022-09-03T09:23:48.863Z,24.98
2022-09-03T09:26:18.914Z,25.29
2022-09-03T09:28:51.100Z,25.03
2022-09-03T09:31:21.360Z,24.73
2022-09-03T09:33:48.414Z,24.85
2022-09-03T09:36:19.464Z,24.43
2022-09-03T09:38:48.544Z,24.71
2022-09-03T09:41:23.347Z,24.67
2022-09-03T09:44:05.612Z,24.83
2022-09-03T09:46:41.134Z,24.81
2022-09-03T09:49:36.340Z,24.92
2022-09-03T09:52:11.557Z,24.78
2022-09-03T09:54:40.909Z,24.50
2022-09-03T09:57:19.902Z,24.11
2022-09-03T09:59:48.062Z,25.44
2022-09-03T10:02:27.854Z,25.30
2022-09-03T10:05:15.108Z,24.64
2022-09-03T10:07:42.381Z,24.64
2022-09-03T10:10:21.008Z,25.27
2022-09-03T10:13:05.893Z,24.77
2022-09-03T10:15:52.522Z,25.77
2022-09-03T10:19:00.166Z,25.41
2022-09-03T10:21:47.386Z,26.68
2022-09-03T10:24:41.949Z,28.06
2022-09-03T10:27:17.004Z,28.43
2022-09-03T10:29:44.521Z,29.21
2022-09-03T10:32:29.098Z,29.20
2022-09-03T10:35:25.198Z,27.92
2022-09-03T10:38:17.242Z,28.50
2022-09-03T10:41:23.267Z,29.51
2022-09-03T10:44:19.000Z,29.18
2022-09-03T10:47:20.315Z,29.08
2022-09-03T10:50:17.896Z,30.50
2022-09-03T10:53:19.134Z,30.32
2022-09-03T10:55:55.900Z,30.96
2022-09-03T10:58:38.170Z,30.00
2022-09-03T11:01:58.167Z,29.72
2022-09-03T11:05:07.732Z,29.42
2022-09-03T11:07:48.219Z,30.86
2022-09-03T11:10:33.672Z,30.84
2022-09-03T11:13:15.931Z,30.55
2022-09-03T11:15:45.943Z,30.02
2022-09-03T11:18:20.266Z,29.11
2022-09-03T11:20:49.710Z,30.33
2022-09-03T11:23:19.526Z,30.77
2022-09-03T11:25:53.745Z,30.98
2022-09-03T11:29:18.364Z,29.81
2022-09-03T11:32:08.154Z,29.80
2022-09-03T11:34:54.490Z,30.48
2022-09-03T11:37:26.029Z,30.06
2022-09-03T11:39:59.018Z,29.35
2022-09-03T11:42:41.396Z,29.54
2022-09-03T11:45:30.144Z,30.38
2022-09-03T11:47:57.494Z,30.00
2022-09-03T11:50:34.194Z,30.41
2022-09-03T11:53:25.566Z,30.30
2022-09-03T11:55:58.998Z,30.74
2022-09-03T11:58:39.454Z,29.52
2022-09-03T12:01:16.071Z,28.91
2022-09-03T12:03:57.192Z,30.10
2022-09-03T12:06:56.218Z,28.81
2022-09-03T12:09:46.269Z,29.50
2022-09-03T12:12:46.239Z,29.75
2022-09-03T12:15:46.252Z,29.75
2022-09-03T12:18:31.757Z,29.52
2022-09-03T12:21:06.234Z,29.56
2022-09-03T12:23:49.104Z,29.82
2022-09-03T12:26:27.712Z,29.66
2022-09-03T12:28:58.764Z,29.01
2022-09-03T12:31:32.981Z,28.72
2022-09-03T12:34:12.798Z,29.10
2022-09-03T12:36:43.921Z,28.89
2022-09-03T12:42:29.094Z,28.62
2022-09-03T12:44:56.599Z,27.89
2022-09-03T12:47:40.649Z,28.34
2022-09-03T12:50:11.809Z,28.00
2022-09-03T12:52:56.929Z,27.74
2022-09-03T12:55:57.230Z,28.56
2022-09-03T12:58:53.304Z,29.10
2022-09-03T13:01:31.531Z,28.10
2022-09-03T13:04:10.829Z,28.06
2022-09-03T13:07:14.407Z,28.13
2022-09-03T13:09:42.903Z,27.55
2022-09-03T13:12:32.065Z,26.54
2022-09-03T13:15:09.289Z,26.80
2022-09-03T13:18:08.023Z,28.30
2022-09-03T13:21:13.140Z,27.98
2022-09-03T13:24:10.625Z,28.25
2022-09-03T13:27:17.917Z,28.23
2022-09-03T13:30:05.583Z,26.97
2022-09-03T13:33:01.665Z,25.93
2022-09-03T13:35:45.360Z,24.98
2022-09-03T13:38:53.806Z,25.62
2022-09-03T13:42:19.165Z,25.53
2022-09-03T13:44:52.448Z,25.42
2022-09-03T13:47:36.303Z,26.55
2022-09-03T13:50:22.014Z,27.11
2022-09-03T13:52:59.134Z,27.41
2022-09-03T13:55:48.351Z,27.33
2022-09-03T13:58:28.208Z,27.72
2022-09-03T14:01:16.093Z,27.59
2022-09-03T14:03:50.979Z,27.59
2022-09-03T14:06:42.491Z,28.11
2022-09-03T14:09:18.769Z,28.66
2022-09-03T14:12:34.873Z,28.21
2022-09-03T14:15:18.204Z,28.20
2022-09-03T14:18:15.870Z,28.73
2022-09-03T14:21:27.633Z,28.56
2022-09-03T14:24:52.605Z,27.78
2022-09-03T14:27:32.233Z,28.72
2022-09-03T14:30:07.265Z,28.66
2022-09-03T14:32:59.782Z,28.89
2022-09-03T14:35:46.602Z,28.34
2022-09-03T14:38:54.205Z,28.77
2022-09-03T14:42:11.412Z,28.98
2022-09-03T14:45:18.134Z,28.78
2022-09-03T14:48:06.912Z,28.87
2022-09-03T14:51:44.623Z,28.99
2022-09-03T14:54:56.598Z,29.26
2022-09-03T14:57:54.416Z,29.36
2022-09-03T15:00:54.283Z,29.25
2022-09-03T15:04:15.606Z,29.36
2022-09-03T15:07:20.082Z,29.24
2022-09-03T15:10:18.775Z,29.00
2022-09-03T15:13:20.948Z,29.28
2022-09-03T15:16:01.620Z,28.85
2022-09-03T15:19:18.319Z,29.05
2022-09-03T15:22:16.475Z,28.89
2022-09-03T15:24:56.600Z,28.61
2022-09-03T15:27:49.693Z,29.18
2022-09-03T15:30:20.258Z,28.70
2022-09-03T15:32:56.037Z,29.04
2022-09-03T15:35:58.186Z,29.25
2022-09-03T15:38:51.281Z,29.48
2022-09-03T15:41:47.031Z,29.73
2022-09-03T15:44:20.081Z,28.63
2022-09-03T15:47:05.265Z,29.33
2022-09-03T15:49:44.601Z,29.05
2022-09-03T15:52:41.348Z,28.68
2022-09-03T15:55:14.246Z,29.37
2022-09-03T15:58:08.350Z,30.18
2022-09-03T16:01:03.097Z,29.81
2022-09-03T16:03:50.254Z,29.89
2022-09-03T16:06:39.780Z,30.10
2022-09-03T16:09:31.271Z,29.77
2022-09-03T16:12:56.159Z,29.98
2022-09-03T16:16:13.024Z,29.94
2022-09-03T16:19:11.011Z,30.11
2022-09-03T16:22:07.833Z,30.41
2022-09-03T16:25:03.906Z,30.17
2022-09-03T16:27:39.192Z,29.93
2022-09-03T16:30:14.916Z,29.81
2022-09-03T16:33:23.077Z,29.21
2022-09-03T16:36:26.367Z,29.86
2022-09-03T16:39:23.513Z,29.24
2022-09-03T16:41:57.547Z,29.01
2022-09-03T16:45:05.605Z,28.90
2022-09-03T16:47:52.063Z,28.85
2022-09-03T16:50:42.535Z,29.11
2022-09-03T16:53:31.608Z,26.79
2022-09-03T16:56:26.091Z,27.95
2022-09-03T16:59:27.341Z,29.25
2022-09-03T17:02:41.217Z,29.32
2022-09-03T17:05:44.890Z,28.94
2022-09-03T17:08:32.231Z,29.13
2022-09-03T17:11:32.582Z,28.97
2022-09-03T17:14:24.027Z,29.03
2022-09-03T17:17:03.346Z,28.97
2022-09-03T17:20:01.729Z,29.00
2022-09-03T17:23:04.657Z,28.94
2022-09-03T17:25:38.236Z,28.66
2022-09-03T17:28:27.957Z,28.53
2022-09-03T17:31:22.313Z,28.78
2022-09-03T17:34:04.846Z,28.59
2022-09-03T17:36:37.392Z,28.61
2022-09-03T17:39:22.170Z,28.58
2022-09-03T17:42:17.122Z,29.14
2022-09-03T17:45:00.536Z,28.93
2022-09-03T17:48:13.225Z,28.69
2022-09-03T17:51:06.081Z,28.67
2022-09-03T17:53:44.431Z,28.47
2022-09-03T17:56:45.317Z,28.53
2022-09-03T17:59:46.198Z,28.46
2022-09-03T18:02:30.706Z,28.40
2022-09-03T18:05:16.163Z,28.61
2022-09-03T18:08:08.048Z,28.32
2022-09-03T18:11:10.514Z,28.52
2022-09-03T18:13:47.594Z,28.23
2022-09-03T18:16:32.074Z,28.66
2022-09-03T18:19:18.303Z,28.44
2022-09-03T18:22:07.228Z,26.31
2022-09-03T18:25:06.165Z,25.71
2022-09-03T18:28:08.426Z,28.19
2022-09-03T18:30:54.842Z,28.26
2022-09-03T18:33:44.097Z,27.90
2022-09-03T18:36:30.992Z,27.91
2022-09-03T18:39:34.293Z,28.33
2022-09-03T18:42:33.068Z,28.24
2022-09-03T18:46:15.143Z,27.88
2022-09-03T18:49:33.421Z,27.63
2022-09-03T18:52:44.901Z,27.96
2022-09-03T18:56:10.561Z,28.54
2022-09-03T18:59:05.312Z,28.61
2022-09-03T19:02:01.541Z,28.23
2022-09-03T19:05:20.530Z,28.26
2022-09-03T19:08:44.982Z,27.97
2022-09-03T19:11:54.937Z,25.62
2022-09-03T19:15:03.021Z,25.29
2022-09-03T19:18:28.558Z,28.51
2022-09-03T19:21:49.366Z,28.14
2022-09-03T19:24:49.239Z,27.51
2022-09-03T19:28:29.300Z,27.63
2022-09-03T19:31:30.035Z,27.70
2022-09-03T19:35:00.860Z,27.90
2022-09-03T19:37:59.401Z,27.90
2022-09-03T19:41:18.947Z,27.96
2022-09-03T19:44:42.827Z,27.42
2022-09-03T19:47:44.863Z,25.08
2022-09-03T19:50:40.105Z,24.98
2022-09-03T19:53:31.279Z,24.93
2022-09-03T19:56:29.717Z,25.41
2022-09-03T19:59:22.181Z,24.97
2022-09-03T20:02:08.157Z,27.80
2022-09-03T20:05:41.274Z,28.26
2022-09-03T20:08:27.015Z,28.08
2022-09-03T20:10:57.317Z,27.97
2022-09-03T20:13:24.386Z,28.01
2022-09-03T20:16:32.867Z,28.18
2022-09-03T20:19:12.759Z,28.50
2022-09-03T20:21:45.425Z,28.36
2022-09-03T20:24:34.123Z,28.66
2022-09-03T20:27:34.882Z,28.51
2022-09-03T20:30:14.381Z,28.42
2022-09-03T20:32:48.797Z,28.90
2022-09-03T20:35:44.441Z,28.86
2022-09-03T20:39:42.445Z,28.65
2022-09-03T20:42:54.337Z,29.23
2022-09-03T20:45:37.743Z,29.15
2022-09-03T20:48:47.076Z,29.42
2022-09-03T20:51:22.978Z,28.80
2022-09-03T20:54:20.008Z,28.37
2022-09-03T20:57:54.911Z,28.53
2022-09-03T21:00:23.211Z,28.42
2022-09-03T21:03:16.462Z,28.36
2022-09-03T21:06:05.167Z,27.74
2022-09-03T21:09:09.057Z,27.64
2022-09-03T21:12:05.906Z,27.40
2022-09-03T21:15:22.382Z,27.43
2022-09-03T21:18:27.202Z,28.36
2022-09-03T21:21:52.267Z,28.29
2022-09-03T21:24:48.171Z,28.25
2022-09-03T21:27:24.491Z,28.09
2022-09-03T21:30:13.659Z,28.25
2022-09-03T21:33:07.112Z,28.43
2022-09-03T21:35:42.939Z,28.09
2022-09-03T21:38:28.032Z,26.10
2022-09-03T21:41:23.893Z,28.14
2022-09-03T21:44:07.253Z,28.10
2022-09-03T21:46:59.595Z,25.21
2022-09-03T21:49:33.766Z,24.98
2022-09-03T21:52:07.559Z,24.58
2022-09-03T21:54:35.395Z,26.64
2022-09-03T21:57:28.448Z,25.96
2022-09-03T22:00:11.418Z,24.91
2022-09-03T22:02:41.297Z,24.56
2022-09-03T22:05:08.628Z,24.48
2022-09-03T22:07:55.808Z,24.38
2022-09-03T22:10:25.852Z,27.16
2022-09-03T22:13:48.648Z,27.59
2022-09-03T22:16:37.274Z,28.80
2022-09-03T22:19:07.751Z,28.25
2022-09-03T22:22:02.283Z,28.27
2022-09-03T22:25:02.017Z,28.31
2022-09-03T22:27:49.395Z,28.28
2022-09-03T22:30:21.337Z,28.33
2022-09-03T22:33:26.614Z,28.11
2022-09-03T22:36:16.897Z,28.01
2022-09-03T22:38:54.721Z,27.53
2022-09-03T22:41:39.541Z,27.47
2022-09-03T22:44:26.171Z,28.16
2022-09-03T22:47:18.866Z,27.64
2022-09-03T22:50:03.413Z,27.50
2022-09-03T22:52:47.304Z,28.08
2022-09-03T22:55:25.359Z,28.24
2022-09-03T22:58:06.511Z,27.82
2022-09-03T23:00:49.420Z,27.43
2022-09-03T23:04:03.889Z,27.73
2022-09-03T23:06:36.002Z,27.73
2022-09-03T23:09:05.919Z,27.29
2022-09-03T23:11:43.708Z,27.60
2022-09-03T23:14:51.478Z,27.61
2022-09-03T23:22:41.736Z,27.86
2022-09-03T23:25:20.514Z,27.64
2022-09-03T23:28:06.894Z,27.40
2022-09-03T23:30:33.929Z,26.90
2022-09-03T23:33:01.304Z,27.07
2022-09-03T23:35:34.457Z,26.78
2022-09-03T23:38:29.111Z,26.87
2022-09-03T23:41:06.969Z,24.40
2022-09-03T23:44:18.694Z,26.69
2022-09-03T23:47:44.916Z,26.65
2022-09-03T23:50:37.458Z,23.74
2022-09-03T23:53:40.364Z,23.79
2022-09-03T23:56:46.087Z,23.93
2022-09-03T23:59:28.634Z,24.79
